Nevskiy-31 — UCGM — position and weather

sailwx.info

Track history (hours):
 
Tides and Currents Weather Stations Pressure Air Temp Water Temp Dewpoint Dewpoint Depression Visibility Wind Speed Wind Dir Waves Ship Positions

Nevskiy-31

Last reported at 2015-Jul-03 21:33 UTC. Time now 2015-Jul-03 22:02 UTC.
Position N 59°58' E 029°48'.

Length 111 m; draft 3.2 m.

Type: Cargo ship. MMSI: 273440320.

Date/timePositionNaut miles runAvg speedWind from/ knotsBaromVisibWave heightAir tempDewpointWater temp
2015-Jul-03 21:33N 59°58' E 029°48'0 0.0
2015-Jul-03 20:33N 59°58' E 029°48'0 0.0
2015-Jul-03 19:33N 59°58' E 029°48'0 0.0
2015-Jul-03 18:33N 59°58' E 029°48'0 0.0
2015-Jul-03 17:33N 59°58' E 029°48'0 0.0
2015-Jul-03 16:33N 59°58' E 029°48'0 0.0
2015-Jul-03 15:33N 59°58' E 029°48'0 0.0
2015-Jul-03 14:33N 59°58' E 029°48'0 0.0
2015-Jul-03 13:33N 59°58' E 029°48'0 0.0
2015-Jul-03 12:33N 59°58' E 029°48'0 0.0
2015-Jul-03 11:33N 59°58' E 029°48'0 0.0
2015-Jul-03 10:33N 59°58' E 029°48'0 0.0
2015-Jul-03 09:33N 59°58' E 029°48'6 5.6
2015-Jul-03 08:33N 59°56' E 029°58'7 7.0
2015-Jul-03 07:33N 59°58' E 030°11'2 2.0
2015-Jul-03 06:33N 59°57' E 030°15'0 0.0
2015-Jul-03 05:33N 59°57' E 030°15'0 0.0
2015-Jul-03 04:33N 59°57' E 030°15'0 0.0
2015-Jul-03 03:33N 59°57' E 030°15'4 4.2
2015-Jul-03 02:33N 59°56' E 030°07'4 4.1
2015-Jul-03 01:33N 59°53' E 030°11'2 1.5
2015-Jul-03 00:33N 59°52' E 030°13'0 0.0
2015-Jul-02 23:33N 59°52' E 030°13'1 1.3
2015-Jul-02 22:33N 59°53' E 030°11'6 6.3
2015-Jul-02 21:33N 59°55' E 029°60'1 1.3
2015-Jul-02 20:33N 59°55' E 029°57'4 3.5
2015-Jul-02 19:33N 59°57' E 029°51'4 3.8
2015-Jul-02 18:25N 59°59' E 029°43'0 0.0
2015-Jul-02 17:33N 59°59' E 029°43'4 3.5
2015-Jul-02 16:31N 59°60' E 029°36'1 0.1
2015-Jul-02 04:04N 60°00' E 029°39'4 8.3
2015-Jul-02 03:33N 59°58' E 029°47'8 7.6
2015-Jul-02 02:33N 59°55' E 030°01'7 6.9
2015-Jul-02 01:33N 59°52' E 030°13'0 0.3
2015-Jul-02 00:33N 59°52' E 030°13'0 0.0
2015-Jul-01 23:33N 59°52' E 030°13'3 2.6
2015-Jul-01 22:33N 59°53' E 030°09'6 6.2
2015-Jul-01 21:33N 59°56' E 029°58'0 0.3
2015-Jul-01 20:33N 59°56' E 029°57'0 0.0
2015-Jul-01 19:33N 59°56' E 029°57'0 0.0
2015-Jul-01 18:33N 59°56' E 029°57'0 0.0
2015-Jul-01 17:33N 59°56' E 029°57'5 5.2
2015-Jul-01 16:33N 59°58' E 029°48'3 0.2
2015-Jul-01 02:24N 59°59' E 029°43'3 3.0
2015-Jul-01 01:33N 59°58' E 029°48'0 0.3
2015-Jul-01 00:33N 59°58' E 029°48'7 6.8
2015-Jun-30 23:33N 59°55' E 030°01'7 7.1
2015-Jun-30 22:33N 59°58' E 030°15'6 5.8
2015-Jun-30 21:33N 59°55' E 030°25'1 1.2
2015-Jun-30 20:33N 59°54' E 030°26'0 0.0
2015-Jun-30 19:08N 59°54' E 030°26'0 0.0
2015-Jun-30 18:31N 59°54' E 030°26'2 1.1
2015-Jun-30 16:32N 59°56' E 030°24'4 3.7
2015-Jun-30 15:33N 59°57' E 030°17'6 5.5
2015-Jun-30 14:33N 59°56' E 030°06'6 6.4
2015-Jun-30 13:33N 59°57' E 029°53'5 0.3
2015-Jun-29 21:33N 59°59' E 029°45'7 7.4
2015-Jun-29 20:33N 59°56' E 029°59'7 7.1
2015-Jun-29 19:33N 59°58' E 030°12'6 6.3
2015-Jun-29 18:33N 59°57' E 030°24'3 2.7
2015-Jun-29 17:32N 59°54' E 030°26'0 0.0
2015-Jun-29 16:30N 59°54' E 030°26'0 0.0
2015-Jun-29 15:33N 59°54' E 030°26'2 0.6
2015-Jun-29 12:29N 59°55' E 030°24'3 3.4
2015-Jun-29 11:33N 59°57' E 030°18'4 3.8
2015-Jun-29 10:33N 59°58' E 030°11'6 6.5
2015-Jun-29 09:33N 59°56' E 029°59'7 6.8
2015-Jun-29 08:33N 59°59' E 029°46'4 0.3
2015-Jun-28 18:18N 60°00' E 029°39'6 7.6
2015-Jun-28 17:33N 59°58' E 029°49'7 7.2
2015-Jun-28 16:33N 59°56' E 030°03'7 6.8
2015-Jun-28 15:33N 59°57' E 030°16'6 5.8
2015-Jun-28 14:32N 59°54' E 030°26'0 0.0
2015-Jun-28 13:33N 59°54' E 030°26'0 0.0
2015-Jun-28 12:32N 59°54' E 030°26'1 0.4
2015-Jun-28 10:29N 59°55' E 030°25'4 3.8
2015-Jun-28 09:33N 59°57' E 030°20'5 5.2
2015-Jun-28 08:33N 59°57' E 030°10'6 6.1
2015-Jun-28 07:33N 59°56' E 029°58'7 6.6
2015-Jun-28 06:33N 59°59' E 029°46'4 0.3
2015-Jun-27 15:31N 59°60' E 029°38'7 7.6
2015-Jun-27 14:33N 59°57' E 029°52'8 7.6
2015-Jun-27 13:33N 59°54' E 030°06'4 4.3
2015-Jun-27 12:33N 59°52' E 030°13'0 0.0
2015-Jun-27 11:33N 59°52' E 030°13'0 0.0
2015-Jun-27 10:33N 59°52' E 030°13'0 0.0
2015-Jun-27 09:33N 59°52' E 030°13'0 0.2
2015-Jun-27 08:32N 59°52' E 030°13'6 6.4
2015-Jun-27 07:33N 59°55' E 030°02'7 7.0
2015-Jun-27 06:33N 59°58' E 029°49'5 0.4
2015-Jun-26 16:33N 59°60' E 029°40'5 5.1
2015-Jun-26 15:33N 59°58' E 029°49'7 7.0
2015-Jun-26 14:33N 59°56' E 030°02'7 6.9
2015-Jun-26 13:33N 59°57' E 030°16'7 2.0
2015-Jun-26 10:18N 59°54' E 030°27'0 0.2
2015-Jun-26 09:33N 59°54' E 030°26'0 0.0
2015-Jun-26 08:32N 59°54' E 030°26'0 0.0
2015-Jun-26 07:33N 59°54' E 030°26'0 0.0
2015-Jun-26 06:30N 59°54' E 030°26'0 0.0
2015-Jun-26 05:33N 59°54' E 030°26'3 2.8
2015-Jun-26 04:33N 59°57' E 030°24'4 3.9
2015-Jun-26 03:33N 59°57' E 030°16'5 5.5
2015-Jun-26 02:33N 59°56' E 030°06'7 6.6
2015-Jun-26 01:33N 59°57' E 029°52'7 7.0
2015-Jun-26 00:33N 59°60' E 029°40'3 0.2
2015-Jun-25 10:28N 60°00' E 029°34'7 7.1
2015-Jun-25 09:33N 59°58' E 029°46'7 7.5
2015-Jun-25 08:33N 59°55' E 029°60'7 7.3
2015-Jun-25 07:33N 59°58' E 030°14'6 6.1
2015-Jun-25 06:33N 59°55' E 030°24'1 1.3
2015-Jun-25 05:31N 59°54' E 030°26'0 0.0
2015-Jun-25 04:33N 59°54' E 030°26'2 1.5
2015-Jun-25 03:31N 59°55' E 030°24'3 3.1
2015-Jun-25 02:34N 59°57' E 030°19'5 4.9
2015-Jun-25 01:33N 59°57' E 030°10'6 5.7
2015-Jun-25 00:33N 59°56' E 029°59'7 6.7
2015-Jun-24 23:33N 59°58' E 029°47'5 0.3
2015-Jun-24 08:07N 59°60' E 029°38'4 7.7
2015-Jun-24 07:33N 59°59' E 029°46'8 7.6
2015-Jun-24 06:33N 59°55' E 030°00'6 6.1
2015-Jun-24 05:33N 59°53' E 030°11'1 1.5
2015-Jun-24 04:33N 59°52' E 030°13'0 0.0
2015-Jun-24 03:33N 59°52' E 030°13'0 0.3
2015-Jun-24 02:33N 59°52' E 030°13'6 6.2
2015-Jun-24 01:33N 59°55' E 030°02'7 6.8
2015-Jun-24 00:33N 59°57' E 029°49'  
Track history (hours):
 
Tides and Currents Weather Stations Pressure Air Temp Water Temp Dewpoint Dewpoint Depression Visibility Wind Speed Wind Dir Waves Ship Positions

Nevskiy-31

Last reported at 2015-Jul-03 21:33 UTC. Time now 2015-Jul-03 22:02 UTC.
Position N 59°58' E 029°48'.

Length 111 m; draft 3.2 m.

Type: Cargo ship. MMSI: 273440320.

Date/timePositionNaut miles runAvg speedWind from/ knotsBaromVisibWave heightAir tempDewpointWater temp
2015-Jul-03 21:33N 59°58' E 029°48'0 0.0
2015-Jul-03 20:33N 59°58' E 029°48'0 0.0
2015-Jul-03 19:33N 59°58' E 029°48'0 0.0
2015-Jul-03 18:33N 59°58' E 029°48'0 0.0
2015-Jul-03 17:33N 59°58' E 029°48'0 0.0
2015-Jul-03 16:33N 59°58' E 029°48'0 0.0
2015-Jul-03 15:33N 59°58' E 029°48'0 0.0
2015-Jul-03 14:33N 59°58' E 029°48'0 0.0
2015-Jul-03 13:33N 59°58' E 029°48'0 0.0
2015-Jul-03 12:33N 59°58' E 029°48'0 0.0
2015-Jul-03 11:33N 59°58' E 029°48'0 0.0
2015-Jul-03 10:33N 59°58' E 029°48'0 0.0
2015-Jul-03 09:33N 59°58' E 029°48'6 5.6
2015-Jul-03 08:33N 59°56' E 029°58'7 7.0
2015-Jul-03 07:33N 59°58' E 030°11'2 2.0
2015-Jul-03 06:33N 59°57' E 030°15'0 0.0
2015-Jul-03 05:33N 59°57' E 030°15'0 0.0
2015-Jul-03 04:33N 59°57' E 030°15'0 0.0
2015-Jul-03 03:33N 59°57' E 030°15'4 4.2
2015-Jul-03 02:33N 59°56' E 030°07'4 4.1
2015-Jul-03 01:33N 59°53' E 030°11'2 1.5
2015-Jul-03 00:33N 59°52' E 030°13'0 0.0
2015-Jul-02 23:33N 59°52' E 030°13'1 1.3
2015-Jul-02 22:33N 59°53' E 030°11'6 6.3
2015-Jul-02 21:33N 59°55' E 029°60'1 1.3
2015-Jul-02 20:33N 59°55' E 029°57'4 3.5
2015-Jul-02 19:33N 59°57' E 029°51'4 3.8
2015-Jul-02 18:25N 59°59' E 029°43'0 0.0
2015-Jul-02 17:33N 59°59' E 029°43'4 3.5
2015-Jul-02 16:31N 59°60' E 029°36'1 0.1
2015-Jul-02 04:04N 60°00' E 029°39'4 8.3
2015-Jul-02 03:33N 59°58' E 029°47'8 7.6
2015-Jul-02 02:33N 59°55' E 030°01'7 6.9
2015-Jul-02 01:33N 59°52' E 030°13'0 0.3
2015-Jul-02 00:33N 59°52' E 030°13'0 0.0
2015-Jul-01 23:33N 59°52' E 030°13'3 2.6
2015-Jul-01 22:33N 59°53' E 030°09'6 6.2
2015-Jul-01 21:33N 59°56' E 029°58'0 0.3
2015-Jul-01 20:33N 59°56' E 029°57'0 0.0
2015-Jul-01 19:33N 59°56' E 029°57'0 0.0
2015-Jul-01 18:33N 59°56' E 029°57'0 0.0
2015-Jul-01 17:33N 59°56' E 029°57'5 5.2
2015-Jul-01 16:33N 59°58' E 029°48'3 0.2
2015-Jul-01 02:24N 59°59' E 029°43'3 3.0
2015-Jul-01 01:33N 59°58' E 029°48'0 0.3
2015-Jul-01 00:33N 59°58' E 029°48'7 6.8
2015-Jun-30 23:33N 59°55' E 030°01'7 7.1
2015-Jun-30 22:33N 59°58' E 030°15'6 5.8
2015-Jun-30 21:33N 59°55' E 030°25'1 1.2
2015-Jun-30 20:33N 59°54' E 030°26'0 0.0
2015-Jun-30 19:08N 59°54' E 030°26'0 0.0
2015-Jun-30 18:31N 59°54' E 030°26'2 1.1
2015-Jun-30 16:32N 59°56' E 030°24'4 3.7
2015-Jun-30 15:33N 59°57' E 030°17'6 5.5
2015-Jun-30 14:33N 59°56' E 030°06'6 6.4
2015-Jun-30 13:33N 59°57' E 029°53'5 0.3
2015-Jun-29 21:33N 59°59' E 029°45'7 7.4
2015-Jun-29 20:33N 59°56' E 029°59'7 7.1
2015-Jun-29 19:33N 59°58' E 030°12'6 6.3
2015-Jun-29 18:33N 59°57' E 030°24'3 2.7
2015-Jun-29 17:32N 59°54' E 030°26'0 0.0
2015-Jun-29 16:30N 59°54' E 030°26'0 0.0
2015-Jun-29 15:33N 59°54' E 030°26'2 0.6
2015-Jun-29 12:29N 59°55' E 030°24'3 3.4
2015-Jun-29 11:33N 59°57' E 030°18'4 3.8
2015-Jun-29 10:33N 59°58' E 030°11'6 6.5
2015-Jun-29 09:33N 59°56' E 029°59'7 6.8
2015-Jun-29 08:33N 59°59' E 029°46'4 0.3
2015-Jun-28 18:18N 60°00' E 029°39'6 7.6
2015-Jun-28 17:33N 59°58' E 029°49'7 7.2
2015-Jun-28 16:33N 59°56' E 030°03'7 6.8
2015-Jun-28 15:33N 59°57' E 030°16'6 5.8
2015-Jun-28 14:32N 59°54' E 030°26'0 0.0
2015-Jun-28 13:33N 59°54' E 030°26'0 0.0
2015-Jun-28 12:32N 59°54' E 030°26'1 0.4
2015-Jun-28 10:29N 59°55' E 030°25'4 3.8
2015-Jun-28 09:33N 59°57' E 030°20'5 5.2
2015-Jun-28 08:33N 59°57' E 030°10'6 6.1
2015-Jun-28 07:33N 59°56' E 029°58'7 6.6
2015-Jun-28 06:33N 59°59' E 029°46'4 0.3
2015-Jun-27 15:31N 59°60' E 029°38'7 7.6
2015-Jun-27 14:33N 59°57' E 029°52'8 7.6
2015-Jun-27 13:33N 59°54' E 030°06'4 4.3
2015-Jun-27 12:33N 59°52' E 030°13'0 0.0
2015-Jun-27 11:33N 59°52' E 030°13'0 0.0
2015-Jun-27 10:33N 59°52' E 030°13'0 0.0
2015-Jun-27 09:33N 59°52' E 030°13'0 0.2
2015-Jun-27 08:32N 59°52' E 030°13'6 6.4
2015-Jun-27 07:33N 59°55' E 030°02'7 7.0
2015-Jun-27 06:33N 59°58' E 029°49'5 0.4
2015-Jun-26 16:33N 59°60' E 029°40'5 5.1
2015-Jun-26 15:33N 59°58' E 029°49'7 7.0
2015-Jun-26 14:33N 59°56' E 030°02'7 6.9
2015-Jun-26 13:33N 59°57' E 030°16'7 2.0
2015-Jun-26 10:18N 59°54' E 030°27'0 0.2
2015-Jun-26 09:33N 59°54' E 030°26'0 0.0
2015-Jun-26 08:32N 59°54' E 030°26'0 0.0
2015-Jun-26 07:33N 59°54' E 030°26'0 0.0
2015-Jun-26 06:30N 59°54' E 030°26'0 0.0
2015-Jun-26 05:33N 59°54' E 030°26'3 2.8
2015-Jun-26 04:33N 59°57' E 030°24'4 3.9
2015-Jun-26 03:33N 59°57' E 030°16'5 5.5
2015-Jun-26 02:33N 59°56' E 030°06'7 6.6
2015-Jun-26 01:33N 59°57' E 029°52'7 7.0
2015-Jun-26 00:33N 59°60' E 029°40'3 0.2
2015-Jun-25 10:28N 60°00' E 029°34'7 7.1
2015-Jun-25 09:33N 59°58' E 029°46'7 7.5
2015-Jun-25 08:33N 59°55' E 029°60'7 7.3
2015-Jun-25 07:33N 59°58' E 030°14'6 6.1
2015-Jun-25 06:33N 59°55' E 030°24'1 1.3
2015-Jun-25 05:31N 59°54' E 030°26'0 0.0
2015-Jun-25 04:33N 59°54' E 030°26'2 1.5
2015-Jun-25 03:31N 59°55' E 030°24'3 3.1
2015-Jun-25 02:34N 59°57' E 030°19'5 4.9
2015-Jun-25 01:33N 59°57' E 030°10'6 5.7
2015-Jun-25 00:33N 59°56' E 029°59'7 6.7
2015-Jun-24 23:33N 59°58' E 029°47'5 0.3
2015-Jun-24 08:07N 59°60' E 029°38'4 7.7
2015-Jun-24 07:33N 59°59' E 029°46'8 7.6
2015-Jun-24 06:33N 59°55' E 030°00'6 6.1
2015-Jun-24 05:33N 59°53' E 030°11'1 1.5
2015-Jun-24 04:33N 59°52' E 030°13'0 0.0
2015-Jun-24 03:33N 59°52' E 030°13'0 0.3
2015-Jun-24 02:33N 59°52' E 030°13'6 6.2
2015-Jun-24 01:33N 59°55' E 030°02'7 6.8
2015-Jun-24 00:33N 59°57' E 029°49'  

Dump ship's entire track history